Time,TemperatureF,DewpointF,PressureIn,WindDirection,WindDirectionDegrees,WindSpeedMPH,WindSpeedGustMPH,Humidity,HourlyPrecipIn,Conditions,Clouds,dailyrainin,SoftwareType,DateUTC
2013-02-12 00:00:00,4.0,-3.0,-100.00,North,-999,-999.0,-999.0,70,-99.99,,,-99.99,,2013-02-12 07:00:00,
2013-02-12 00:32:00,4.0,-3.0,-100.00,North,-999,-999.0,-999.0,70,-99.99,,,-99.99,,2013-02-12 07:32:00,
2013-02-12 00:42:00,4.0,-3.0,-100.00,North,-999,-999.0,-999.0,70,-99.99,,,-99.99,,2013-02-12 07:42:00,
2013-02-12 00:52:00,4.0,-3.0,-100.00,North,-999,-999.0,-999.0,70,-99.99,,,-99.99,,2013-02-12 07:52:00,
2013-02-12 01:00:00,6.0,-1.0,-100.00,North,-999,-999.0,-999.0,72,-99.99,,,-99.99,,2013-02-12 08:00:00,
2013-02-12 01:32:00,6.0,-1.0,-100.00,North,-999,-999.0,-999.0,72,-99.99,,,-99.99,,2013-02-12 08:32:00,
2013-02-12 01:42:00,6.0,-1.0,-100.00,North,-999,-999.0,-999.0,72,-99.99,,,-99.99,,2013-02-12 08:42:00,
2013-02-12 01:52:00,6.0,-1.0,-100.00,North,-999,-999.0,-999.0,72,-99.99,,,-99.99,,2013-02-12 08:52:00,
2013-02-12 02:00:00,5.0,0.0,-100.00,North,-999,-999.0,-999.0,79,-99.99,,,-99.99,,2013-02-12 09:00:00,
2013-02-12 02:32:00,5.0,0.0,-100.00,North,-999,-999.0,-999.0,79,-99.99,,,-99.99,,2013-02-12 09:32:00,
2013-02-12 02:42:00,5.0,0.0,-100.00,North,-999,-999.0,-999.0,79,-99.99,,,-99.99,,2013-02-12 09:42:00,
2013-02-12 02:52:00,5.0,0.0,-100.00,North,-999,-999.0,-999.0,79,-99.99,,,-99.99,,2013-02-12 09:52:00,
2013-02-12 03:00:00,4.0,-1.0,-100.00,North,-999,-999.0,-999.0,82,-99.99,,,-99.99,,2013-02-12 10:00:00,
2013-02-12 03:32:00,4.0,-1.0,-100.00,North,-999,-999.0,-999.0,82,-99.99,,,-99.99,,2013-02-12 10:32:00,
2013-02-12 03:43:00,4.0,-1.0,-100.00,North,-999,-999.0,-999.0,82,-99.99,,,-99.99,,2013-02-12 10:43:00,
2013-02-12 03:52:00,4.0,-1.0,-100.00,North,-999,-999.0,-999.0,82,-99.99,,,-99.99,,2013-02-12 10:52:00,
2013-02-12 05:00:00,4.0,0.0,-100.00,North,-999,-999.0,-999.0,83,-99.99,,,-99.99,,2013-02-12 12:00:00,
2013-02-12 05:32:00,4.0,0.0,-100.00,North,-999,-999.0,-999.0,83,-99.99,,,-99.99,,2013-02-12 12:32:00,
2013-02-12 05:42:00,4.0,0.0,-100.00,North,-999,-999.0,-999.0,83,-99.99,,,-99.99,,2013-02-12 12:42:00,
2013-02-12 05:52:00,4.0,0.0,-100.00,North,-999,-999.0,-999.0,83,-99.99,,,-99.99,,2013-02-12 12:52:00,
2013-02-12 06:00:00,6.0,2.0,-100.00,North,-999,-999.0,-999.0,83,-99.99,,,-99.99,,2013-02-12 13:00:00,
2013-02-12 06:32:00,6.0,2.0,-100.00,North,-999,-999.0,-999.0,83,-99.99,,,-99.99,,2013-02-12 13:32:00,
2013-02-12 06:42:00,6.0,2.0,-100.00,North,-999,-999.0,-999.0,83,-99.99,,,-99.99,,2013-02-12 13:42:00,
2013-02-12 06:52:00,6.0,2.0,-100.00,North,-999,-999.0,-999.0,83,-99.99,,,-99.99,,2013-02-12 13:52:00,
2013-02-12 07:00:00,5.0,2.0,-100.00,North,-999,-999.0,-999.0,89,-99.99,,,-99.99,,2013-02-12 14:00:00,
2013-02-12 07:32:00,5.0,2.0,-100.00,North,-999,-999.0,-999.0,89,-99.99,,,-99.99,,2013-02-12 14:32:00,
2013-02-12 07:42:00,5.0,2.0,-100.00,North,-999,-999.0,-999.0,89,-99.99,,,-99.99,,2013-02-12 14:42:00,
2013-02-12 07:52:00,5.0,2.0,-100.00,North,-999,-999.0,-999.0,89,-99.99,,,-99.99,,2013-02-12 14:52:00,
2013-02-12 08:00:00,5.0,3.0,-100.00,North,-999,-999.0,-999.0,91,-99.99,,,-99.99,,2013-02-12 15:00:00,
2013-02-12 08:32:00,5.0,3.0,-100.00,North,-999,-999.0,-999.0,91,-99.99,,,-99.99,,2013-02-12 15:32:00,
2013-02-12 08:42:00,5.0,3.0,-100.00,North,-999,-999.0,-999.0,91,-99.99,,,-99.99,,2013-02-12 15:42:00,
2013-02-12 08:52:00,5.0,3.0,-100.00,North,-999,-999.0,-999.0,91,-99.99,,,-99.99,,2013-02-12 15:52:00,
2013-02-12 09:00:00,11.0,8.0,-100.00,North,-999,-999.0,-999.0,86,-99.99,,,-99.99,,2013-02-12 16:00:00,
2013-02-12 09:22:00,11.0,8.0,-100.00,North,-999,-999.0,-999.0,86,-99.99,,,-99.99,,2013-02-12 16:22:00,
2013-02-12 09:32:00,11.0,8.0,-100.00,North,-999,-999.0,-999.0,86,-99.99,,,-99.99,,2013-02-12 16:32:00,
2013-02-12 09:42:00,11.0,8.0,-100.00,North,-999,-999.0,-999.0,86,-99.99,,,-99.99,,2013-02-12 16:42:00,
2013-02-12 09:52:00,11.0,8.0,-100.00,North,-999,-999.0,-999.0,86,-99.99,,,-99.99,,2013-02-12 16:52:00,
2013-02-12 10:00:00,11.0,6.0,-100.00,North,-999,-999.0,-999.0,79,-99.99,,,-99.99,,2013-02-12 17:00:00,
2013-02-12 10:32:00,11.0,6.0,-100.00,North,-999,-999.0,-999.0,79,-99.99,,,-99.99,,2013-02-12 17:32:00,
2013-02-12 10:42:00,11.0,6.0,-100.00,North,-999,-999.0,-999.0,79,-99.99,,,-99.99,,2013-02-12 17:42:00,
2013-02-12 10:52:00,11.0,6.0,-100.00,North,-999,-999.0,-999.0,79,-99.99,,,-99.99,,2013-02-12 17:52:00,
2013-02-12 11:00:00,14.0,8.0,-100.00,North,-999,-999.0,-999.0,78,-99.99,,,-99.99,,2013-02-12 18:00:00,
2013-02-12 11:32:00,14.0,8.0,-100.00,North,-999,-999.0,-999.0,78,-99.99,,,-99.99,,2013-02-12 18:32:00,
2013-02-12 11:42:00,14.0,8.0,-100.00,North,-999,-999.0,-999.0,78,-99.99,,,-99.99,,2013-02-12 18:42:00,
2013-02-12 11:52:00,14.0,8.0,-100.00,North,-999,-999.0,-999.0,78,-99.99,,,-99.99,,2013-02-12 18:52:00,
2013-02-12 12:00:00,14.0,11.0,-100.00,North,-999,-999.0,-999.0,84,-99.99,,,-99.99,,2013-02-12 19:00:00,
2013-02-12 12:32:00,14.0,11.0,-100.00,North,-999,-999.0,-999.0,84,-99.99,,,-99.99,,2013-02-12 19:32:00,
2013-02-12 12:42:00,14.0,11.0,-100.00,North,-999,-999.0,-999.0,84,-99.99,,,-99.99,,2013-02-12 19:42:00,
2013-02-12 12:52:00,14.0,11.0,-100.00,North,-999,-999.0,-999.0,84,-99.99,,,-99.99,,2013-02-12 19:52:00,
2013-02-12 14:00:00,18.0,14.0,-100.00,North,-999,-999.0,-999.0,84,-99.99,,,-99.99,,2013-02-12 21:00:00,
2013-02-12 14:32:00,18.0,14.0,-100.00,North,-999,-999.0,-999.0,84,-99.99,,,-99.99,,2013-02-12 21:32:00,
2013-02-12 14:42:00,18.0,14.0,-100.00,North,-999,-999.0,-999.0,84,-99.99,,,-99.99,,2013-02-12 21:42:00,
2013-02-12 14:52:00,18.0,14.0,-100.00,North,-999,-999.0,-999.0,84,-99.99,,,-99.99,,2013-02-12 21:52:00,
2013-02-12 15:00:00,17.0,14.0,-100.00,North,-999,-999.0,-999.0,85,-99.99,,,-99.99,,2013-02-12 22:00:00,
2013-02-12 15:32:00,17.0,14.0,-100.00,North,-999,-999.0,-999.0,85,-99.99,,,-99.99,,2013-02-12 22:32:00,
2013-02-12 15:42:00,17.0,14.0,-100.00,North,-999,-999.0,-999.0,85,-99.99,,,-99.99,,2013-02-12 22:42:00,
2013-02-12 15:52:00,17.0,14.0,-100.00,North,-999,-999.0,-999.0,85,-99.99,,,-99.99,,2013-02-12 22:52:00,
2013-02-12 16:00:00,18.0,14.0,-100.00,North,-999,-999.0,-999.0,85,-99.99,,,-99.99,,2013-02-12 23:00:00,
2013-02-12 16:32:00,18.0,14.0,-100.00,North,-999,-999.0,-999.0,85,-99.99,,,-99.99,,2013-02-12 23:32:00,
2013-02-12 16:42:00,18.0,14.0,-100.00,North,-999,-999.0,-999.0,85,-99.99,,,-99.99,,2013-02-12 23:42:00,
2013-02-12 16:52:00,18.0,14.0,-100.00,North,-999,-999.0,-999.0,85,-99.99,,,-99.99,,2013-02-12 23:52:00,
2013-02-12 17:00:00,16.0,14.0,-100.00,North,-999,-999.0,-999.0,91,-99.99,,,-99.99,,2013-02-13 00:00:00,
2013-02-12 17:32:00,16.0,14.0,-100.00,North,-999,-999.0,-999.0,91,-99.99,,,-99.99,,2013-02-13 00:32:00,
2013-02-12 17:42:00,16.0,14.0,-100.00,North,-999,-999.0,-999.0,91,-99.99,,,-99.99,,2013-02-13 00:42:00,
2013-02-12 17:52:00,16.0,14.0,-100.00,North,-999,-999.0,-999.0,91,-99.99,,,-99.99,,2013-02-13 00:52:00,
2013-02-12 18:00:00,15.0,13.0,-100.00,North,-999,-999.0,-999.0,93,-99.99,,,-99.99,,2013-02-13 01:00:00,
2013-02-12 18:32:00,15.0,13.0,-100.00,North,-999,-999.0,-999.0,93,-99.99,,,-99.99,,2013-02-13 01:32:00,
2013-02-12 18:42:00,15.0,13.0,-100.00,North,-999,-999.0,-999.0,93,-99.99,,,-99.99,,2013-02-13 01:42:00,
2013-02-12 18:52:00,15.0,13.0,-100.00,North,-999,-999.0,-999.0,93,-99.99,,,-99.99,,2013-02-13 01:52:00,
2013-02-12 19:00:00,15.0,14.0,-100.00,North,-999,-999.0,-999.0,94,-99.99,,,-99.99,,2013-02-13 02:00:00,
2013-02-12 19:32:00,15.0,14.0,-100.00,North,-999,-999.0,-999.0,94,-99.99,,,-99.99,,2013-02-13 02:32:00,
2013-02-12 19:42:00,15.0,14.0,-100.00,North,-999,-999.0,-999.0,94,-99.99,,,-99.99,,2013-02-13 02:42:00,
2013-02-12 19:52:00,15.0,14.0,-100.00,North,-999,-999.0,-999.0,94,-99.99,,,-99.99,,2013-02-13 02:52:00,
2013-02-12 20:00:00,15.0,14.0,-100.00,North,-999,-999.0,-999.0,95,-99.99,,,-99.99,,2013-02-13 03:00:00,
2013-02-12 20:32:00,15.0,14.0,-100.00,North,-999,-999.0,-999.0,95,-99.99,,,-99.99,,2013-02-13 03:32:00,
2013-02-12 20:42:00,15.0,14.0,-100.00,North,-999,-999.0,-999.0,95,-99.99,,,-99.99,,2013-02-13 03:42:00,
2013-02-12 20:52:00,15.0,14.0,-100.00,North,-999,-999.0,-999.0,95,-99.99,,,-99.99,,2013-02-13 03:52:00,
2013-02-12 21:00:00,15.0,14.0,-100.00,North,-999,-999.0,-999.0,95,-99.99,,,-99.99,,2013-02-13 04:00:00,
2013-02-12 21:32:00,15.0,14.0,-100.00,North,-999,-999.0,-999.0,95,-99.99,,,-99.99,,2013-02-13 04:32:00,
2013-02-12 21:42:00,15.0,14.0,-100.00,North,-999,-999.0,-999.0,95,-99.99,,,-99.99,,2013-02-13 04:42:00,
2013-02-12 21:52:00,15.0,14.0,-100.00,North,-999,-999.0,-999.0,95,-99.99,,,-99.99,,2013-02-13 04:52:00,
2013-02-12 22:00:00,15.0,14.0,-100.00,North,-999,-999.0,-999.0,94,-99.99,,,-99.99,,2013-02-13 05:00:00,
2013-02-12 22:32:00,15.0,14.0,-100.00,North,-999,-999.0,-999.0,94,-99.99,,,-99.99,,2013-02-13 05:32:00,
2013-02-12 22:42:00,15.0,14.0,-100.00,North,-999,-999.0,-999.0,94,-99.99,,,-99.99,,2013-02-13 05:42:00,
2013-02-12 22:52:00,15.0,14.0,-100.00,North,-999,-999.0,-999.0,94,-99.99,,,-99.99,,2013-02-13 05:52:00,
2013-02-12 23:00:00,16.0,15.0,-100.00,North,-999,-999.0,-999.0,94,-99.99,,,-99.99,,2013-02-13 06:00:00,
2013-02-12 23:32:00,16.0,15.0,-100.00,North,-999,-999.0,-999.0,94,-99.99,,,-99.99,,2013-02-13 06:32:00,
2013-02-12 23:42:00,16.0,15.0,-100.00,North,-999,-999.0,-999.0,94,-99.99,,,-99.99,,2013-02-13 06:42:00,
2013-02-12 23:52:00,16.0,15.0,-100.00,North,-999,-999.0,-999.0,94,-99.99,,,-99.99,,2013-02-13 06:52:00,